createdAt,value
2019-03-26T00:01:00.710Z,46.17
2019-03-26T00:04:09.413Z,45.97
2019-03-26T00:07:18.022Z,40.77
2019-03-26T00:10:27.806Z,48.77
2019-03-26T00:13:36.482Z,35.37
2019-03-26T00:16:45.003Z,38.40
2019-03-26T00:19:53.575Z,34.30
2019-03-26T00:23:02.061Z,33.33
2019-03-26T00:26:10.643Z,32.00
2019-03-26T00:29:19.141Z,36.87
2019-03-26T00:32:27.654Z,39.77
2019-03-26T00:35:36.283Z,38.90
2019-03-26T00:38:45.063Z,38.17
2019-03-26T00:41:55.870Z,35.37
2019-03-26T00:45:04.525Z,34.00
2019-03-26T00:48:13.106Z,38.27
2019-03-26T00:51:21.760Z,33.40
2019-03-26T00:54:30.475Z,28.23
2019-03-26T00:57:39.329Z,31.07
2019-03-26T01:00:48.357Z,31.67
2019-03-26T01:03:57.013Z,33.43
2019-03-26T01:07:05.523Z,35.53
2019-03-26T01:10:23.587Z,31.50
2019-03-26T01:13:32.186Z,38.60
2019-03-26T01:16:40.721Z,38.03
2019-03-26T01:19:49.249Z,33.57
2019-03-26T01:22:57.977Z,33.90
2019-03-26T01:26:06.658Z,31.87
2019-03-26T01:29:15.166Z,30.40
2019-03-26T01:32:24.136Z,37.40
2019-03-26T01:35:32.659Z,27.87
2019-03-26T01:38:41.186Z,27.40
2019-03-26T01:41:51.082Z,30.03
2019-03-26T01:44:59.742Z,30.30
2019-03-26T01:48:08.268Z,28.40
2019-03-26T01:51:17.757Z,28.13
2019-03-26T01:54:26.487Z,31.80
2019-03-26T01:57:35.135Z,29.17
2019-03-26T02:00:43.649Z,23.93
2019-03-26T02:03:52.397Z,26.60
2019-03-26T02:07:01.191Z,28.00
2019-03-26T02:10:09.964Z,31.37
2019-03-26T02:13:18.459Z,32.47
2019-03-26T02:16:27.102Z,28.03
2019-03-26T02:19:35.708Z,40.67
2019-03-26T02:22:44.248Z,33.87
2019-03-26T02:25:52.784Z,31.30
2019-03-26T02:29:01.307Z,31.60
2019-03-26T02:32:10.128Z,40.00
2019-03-26T02:35:19.344Z,34.53
2019-03-26T02:38:28.083Z,38.63
2019-03-26T02:41:38.143Z,33.87
2019-03-26T02:44:47.015Z,33.03
2019-03-26T02:47:55.543Z,35.67
2019-03-26T02:51:04.045Z,30.13
2019-03-26T02:54:12.559Z,32.60
2019-03-26T02:57:21.112Z,31.83
2019-03-26T03:00:29.752Z,33.23
2019-03-26T03:03:38.300Z,31.43
2019-03-26T03:06:47.271Z,36.00
2019-03-26T03:09:56.579Z,33.43
2019-03-26T03:13:05.728Z,39.47
2019-03-26T03:16:14.515Z,39.10
2019-03-26T03:19:23.109Z,46.40
2019-03-26T03:22:31.767Z,43.13
2019-03-26T03:25:40.254Z,43.07
2019-03-26T03:28:48.863Z,41.93
2019-03-26T03:31:57.389Z,38.97
2019-03-26T03:35:06.470Z,37.57
2019-03-26T03:38:15.063Z,41.50
2019-03-26T03:41:23.546Z,40.27
2019-03-26T03:44:32.022Z,43.60
2019-03-26T03:47:41.004Z,52.27
2019-03-26T03:50:49.530Z,59.20
2019-03-26T03:53:59.194Z,50.53
2019-03-26T03:57:08.559Z,47.53
2019-03-26T04:00:40.388Z,57.63
2019-03-26T04:03:49.193Z,49.67
2019-03-26T04:06:57.730Z,53.33
2019-03-26T04:10:07.219Z,45.80
2019-03-26T04:13:15.819Z,47.57
2019-03-26T04:16:24.341Z,47.03
2019-03-26T04:19:33.002Z,45.23
2019-03-26T04:22:41.548Z,44.67
2019-03-26T04:25:50.140Z,49.93
2019-03-26T04:28:58.683Z,51.60
2019-03-26T04:32:07.195Z,63.80
2019-03-26T04:35:15.859Z,57.27
2019-03-26T04:38:24.731Z,65.73
2019-03-26T04:41:33.343Z,52.10
2019-03-26T04:44:43.774Z,64.03
2019-03-26T04:47:52.293Z,35.60
2019-03-26T04:51:00.820Z,39.87
2019-03-26T04:54:09.454Z,33.83
2019-03-26T04:57:18.820Z,31.97
2019-03-26T05:00:27.378Z,34.00
2019-03-26T05:03:35.944Z,39.47
2019-03-26T05:06:44.470Z,32.97
2019-03-26T05:09:53.030Z,47.80
2019-03-26T05:13:01.530Z,38.40
2019-03-26T05:16:10.082Z,43.60
2019-03-26T05:19:18.610Z,64.67
2019-03-26T05:22:27.116Z,44.37
2019-03-26T05:25:35.656Z,61.50
2019-03-26T05:28:44.195Z,125.07
2019-03-26T05:31:52.738Z,52.53
2019-03-26T05:35:01.262Z,57.50
2019-03-26T05:38:09.954Z,50.60
2019-03-26T05:41:18.548Z,61.93
2019-03-26T05:44:27.099Z,62.73
2019-03-26T05:47:35.640Z,58.47
2019-03-26T05:50:44.195Z,62.70
2019-03-26T05:53:53.319Z,56.27
2019-03-26T05:57:02.880Z,37.50
2019-03-26T06:00:17.548Z,51.30
2019-03-26T06:03:26.158Z,34.20
2019-03-26T06:06:34.714Z,28.90
2019-03-26T06:09:43.180Z,35.63
2019-03-26T06:12:51.719Z,37.40
2019-03-26T06:16:00.279Z,32.27
2019-03-26T06:19:08.985Z,30.00
2019-03-26T06:22:17.531Z,30.23
2019-03-26T06:25:26.140Z,32.03
2019-03-26T06:28:34.770Z,32.00
2019-03-26T06:31:44.433Z,28.80
2019-03-26T06:34:53.032Z,35.63
2019-03-26T06:38:01.579Z,38.47
2019-03-26T06:41:10.235Z,31.63
2019-03-26T06:44:19.072Z,42.00
2019-03-26T06:47:27.632Z,30.87
2019-03-26T06:50:36.362Z,31.80
2019-03-26T06:53:44.952Z,34.53
2019-03-26T06:56:53.565Z,38.93
2019-03-26T07:00:02.069Z,43.00
2019-03-26T07:03:11.805Z,40.37
2019-03-26T07:06:20.420Z,45.43
2019-03-26T07:09:28.974Z,51.53
2019-03-26T07:12:37.780Z,47.90
2019-03-26T07:15:46.301Z,38.40
2019-03-26T07:18:54.862Z,37.07
2019-03-26T07:22:04.528Z,40.27
2019-03-26T07:25:13.024Z,33.70
2019-03-26T07:28:21.568Z,34.17
2019-03-26T07:31:30.255Z,44.37
2019-03-26T07:34:38.811Z,35.73
2019-03-26T07:37:47.800Z,26.00
2019-03-26T07:40:56.423Z,31.40
2019-03-26T07:44:04.981Z,32.03
2019-03-26T07:47:13.490Z,34.83
2019-03-26T07:50:22.002Z,35.97
2019-03-26T07:53:30.568Z,39.50
2019-03-26T07:56:39.144Z,38.90
2019-03-26T07:59:47.814Z,37.40
2019-03-26T08:02:56.836Z,36.03
2019-03-26T08:06:05.652Z,36.47
2019-03-26T08:09:14.208Z,37.87
2019-03-26T08:12:22.729Z,36.80
2019-03-26T08:15:31.323Z,38.17
2019-03-26T08:18:39.911Z,26.60
2019-03-26T08:21:48.452Z,27.07
2019-03-26T08:24:56.942Z,26.50
2019-03-26T08:28:05.544Z,33.70
2019-03-26T08:31:14.176Z,25.57
2019-03-26T08:34:22.688Z,55.63
2019-03-26T08:37:31.201Z,59.37
2019-03-26T08:40:39.777Z,52.93
2019-03-26T08:43:48.314Z,77.27
2019-03-26T08:46:56.835Z,19.70
2019-03-26T08:50:05.637Z,21.47
2019-03-26T08:53:14.350Z,23.20
2019-03-26T08:56:22.878Z,15.00
2019-03-26T08:59:31.439Z,24.27
2019-03-26T09:02:40.022Z,32.90
2019-03-26T09:05:48.551Z,41.23
2019-03-26T09:08:57.072Z,25.43
2019-03-26T09:12:05.590Z,11.10
2019-03-26T09:15:14.831Z,23.70
2019-03-26T09:18:24.431Z,12.13
2019-03-26T09:21:32.963Z,20.17
2019-03-26T09:24:41.481Z,17.73
2019-03-26T09:27:52.416Z,19.47
2019-03-26T09:31:00.161Z,15.10
2019-03-26T09:34:09.945Z,16.90
2019-03-26T09:37:18.787Z,13.37
2019-03-26T09:40:27.895Z,18.50
2019-03-26T09:43:36.606Z,18.17
2019-03-26T09:46:45.253Z,15.73
2019-03-26T09:49:53.789Z,17.20
2019-03-26T09:53:02.294Z,23.20
2019-03-26T09:56:10.919Z,15.27
2019-03-26T09:59:20.096Z,15.50
2019-03-26T10:02:28.745Z,15.23
2019-03-26T10:05:37.291Z,17.50
2019-03-26T10:08:52.190Z,24.87
2019-03-26T10:11:56.077Z,19.80
2019-03-26T10:15:04.980Z,24.07
2019-03-26T10:18:14.213Z,18.80
2019-03-26T10:21:23.011Z,23.10
2019-03-26T10:24:32.099Z,18.97
2019-03-26T10:27:41.056Z,20.93
2019-03-26T10:30:49.830Z,14.40
2019-03-26T10:33:58.543Z,23.40
2019-03-26T10:37:08.279Z,17.93
2019-03-26T10:40:25.801Z,13.33
2019-03-26T10:43:34.381Z,15.87
2019-03-26T10:46:44.600Z,10.20
2019-03-26T10:49:53.358Z,13.23
2019-03-26T10:53:02.016Z,13.50
2019-03-26T10:56:13.221Z,15.40
2019-03-26T10:59:21.877Z,14.27
2019-03-26T11:02:30.397Z,11.20
2019-03-26T11:05:38.957Z,7.63
2019-03-26T11:08:48.538Z,14.40
2019-03-26T11:11:58.277Z,13.47
2019-03-26T11:15:08.942Z,11.10
2019-03-26T11:18:17.516Z,14.17
2019-03-26T11:21:26.037Z,27.90
2019-03-26T11:24:34.589Z,35.87
2019-03-26T11:27:43.186Z,20.37
2019-03-26T11:30:51.888Z,12.37
2019-03-26T11:34:00.390Z,10.57
2019-03-26T11:37:08.891Z,9.23
2019-03-26T11:40:18.003Z,9.20
2019-03-26T11:43:26.613Z,10.47
2019-03-26T11:46:35.156Z,14.17
2019-03-26T11:49:43.671Z,15.20
2019-03-26T11:52:52.171Z,6.83
2019-03-26T11:56:00.696Z,8.20
2019-03-26T11:59:09.341Z,10.60
2019-03-26T12:02:18.022Z,10.10
2019-03-26T12:05:26.665Z,10.27
2019-03-26T12:08:35.561Z,12.60
2019-03-26T12:11:44.126Z,12.20
2019-03-26T12:14:53.575Z,13.00
2019-03-26T12:18:02.310Z,12.33
2019-03-26T12:21:10.965Z,18.17
2019-03-26T12:24:19.413Z,12.27
2019-03-26T12:27:27.958Z,17.60
2019-03-26T12:30:39.905Z,21.87
2019-03-26T12:33:48.535Z,9.80
2019-03-26T12:36:57.042Z,11.77
2019-03-26T12:40:08.252Z,12.53
2019-03-26T12:43:16.930Z,11.73
2019-03-26T12:46:26.644Z,8.87
2019-03-26T12:49:35.190Z,10.90
2019-03-26T12:52:43.734Z,11.40
2019-03-26T12:55:56.404Z,11.93
2019-03-26T12:59:04.895Z,14.20
2019-03-26T13:02:13.511Z,34.47
2019-03-26T13:05:23.284Z,20.60
2019-03-26T13:08:32.089Z,19.33
2019-03-26T13:11:41.821Z,15.57
2019-03-26T13:14:50.455Z,19.63
2019-03-26T13:17:59.023Z,12.60
2019-03-26T13:21:07.683Z,15.73
2019-03-26T13:24:16.251Z,11.07
2019-03-26T13:27:24.814Z,10.37
2019-03-26T13:30:34.629Z,9.30
2019-03-26T13:33:43.414Z,8.30
2019-03-26T13:36:52.082Z,11.30
2019-03-26T13:40:00.601Z,11.47
2019-03-26T13:43:11.510Z,9.50
2019-03-26T13:46:20.539Z,13.53
2019-03-26T13:49:29.063Z,12.87
2019-03-26T13:52:37.685Z,13.93
2019-03-26T13:55:46.268Z,12.67
2019-03-26T13:58:54.971Z,20.30
2019-03-26T14:02:03.473Z,11.20
2019-03-26T14:05:25.573Z,13.27
2019-03-26T14:08:34.181Z,15.90
2019-03-26T14:11:42.827Z,16.67
2019-03-26T14:14:51.511Z,24.37
2019-03-26T14:18:00.316Z,14.07
2019-03-26T14:21:08.978Z,19.13
2019-03-26T14:24:17.806Z,17.20
2019-03-26T14:27:26.381Z,16.80
2019-03-26T14:30:43.642Z,18.43
2019-03-26T14:33:53.408Z,19.37
2019-03-26T14:37:01.920Z,17.87
2019-03-26T14:40:10.655Z,30.57
2019-03-26T14:43:19.318Z,43.47
2019-03-26T14:46:28.013Z,32.30
2019-03-26T14:49:38.080Z,27.07
2019-03-26T14:52:46.630Z,23.67
2019-03-26T14:55:55.445Z,31.70
2019-03-26T14:59:04.021Z,45.07
2019-03-26T15:02:12.894Z,34.23
2019-03-26T15:05:21.401Z,23.73
2019-03-26T15:08:29.963Z,42.53
2019-03-26T15:11:38.606Z,51.93
2019-03-26T15:14:47.784Z,33.60
2019-03-26T15:17:56.401Z,33.80
2019-03-26T15:21:06.034Z,35.40
2019-03-26T15:24:15.623Z,23.97
2019-03-26T15:27:24.220Z,16.43
2019-03-26T15:30:32.791Z,27.63
2019-03-26T15:33:43.916Z,27.33
2019-03-26T15:36:52.431Z,20.63
2019-03-26T15:40:01.063Z,27.43
2019-03-26T15:43:09.666Z,24.07
2019-03-26T15:46:18.197Z,15.73
2019-03-26T15:49:26.738Z,14.10
2019-03-26T15:52:35.347Z,14.10
2019-03-26T15:55:44.248Z,11.30
2019-03-26T15:58:52.826Z,22.20
2019-03-26T16:02:01.368Z,17.63
2019-03-26T16:05:10.570Z,15.63
2019-03-26T16:08:19.246Z,15.10
2019-03-26T16:11:35.717Z,10.20
2019-03-26T16:14:39.592Z,18.57
2019-03-26T16:17:48.184Z,20.30
2019-03-26T16:20:56.703Z,24.63
2019-03-26T16:24:05.310Z,15.27
2019-03-26T16:27:14.255Z,16.60
2019-03-26T16:30:22.802Z,14.97
2019-03-26T16:33:31.401Z,24.93
2019-03-26T16:36:41.670Z,20.20
2019-03-26T16:39:50.353Z,21.20
2019-03-26T16:42:58.801Z,13.83
2019-03-26T16:46:07.352Z,24.80
2019-03-26T16:49:15.885Z,11.70
2019-03-26T16:52:26.600Z,17.10
2019-03-26T16:55:34.690Z,33.40
2019-03-26T16:58:43.349Z,13.80
2019-03-26T17:01:53.034Z,25.23
2019-03-26T17:05:01.719Z,24.40
2019-03-26T17:08:10.626Z,29.00
2019-03-26T17:11:19.182Z,24.80
2019-03-26T17:14:27.688Z,30.87
2019-03-26T17:17:36.311Z,43.23
2019-03-26T17:20:45.278Z,30.60
2019-03-26T17:23:53.922Z,19.07
2019-03-26T17:27:02.494Z,25.63
2019-03-26T17:30:11.198Z,31.47
2019-03-26T17:33:19.787Z,19.03
2019-03-26T17:36:28.454Z,16.63
2019-03-26T17:39:37.127Z,17.80
2019-03-26T17:42:45.866Z,21.30
2019-03-26T17:45:54.439Z,28.93
2019-03-26T17:49:03.443Z,23.70
2019-03-26T17:52:11.981Z,19.20
2019-03-26T17:55:20.659Z,16.03
2019-03-26T17:58:29.196Z,31.50
2019-03-26T18:01:37.804Z,16.77
2019-03-26T18:04:46.395Z,19.23
2019-03-26T18:07:55.102Z,25.90
2019-03-26T18:11:05.024Z,37.00
2019-03-26T18:14:13.898Z,18.23
2019-03-26T18:17:22.485Z,19.67
2019-03-26T18:20:32.726Z,21.53
2019-03-26T18:23:41.822Z,22.20
2019-03-26T18:26:50.468Z,18.50
2019-03-26T18:30:07.101Z,16.20
2019-03-26T18:33:16.752Z,22.37
2019-03-26T18:36:25.838Z,19.83
2019-03-26T18:39:37.727Z,19.47
2019-03-26T18:42:46.494Z,24.50
2019-03-26T18:45:55.125Z,26.87
2019-03-26T18:49:03.770Z,22.00
2019-03-26T18:52:12.512Z,14.50
2019-03-26T18:55:21.096Z,31.90
2019-03-26T18:58:31.538Z,28.10
2019-03-26T19:01:40.174Z,32.73
2019-03-26T19:04:48.855Z,34.23
2019-03-26T19:07:57.290Z,25.40
2019-03-26T19:11:06.658Z,23.23
2019-03-26T19:14:15.577Z,29.70
2019-03-26T19:17:24.419Z,37.87
2019-03-26T19:20:32.964Z,34.60
2019-03-26T19:23:41.580Z,27.13
2019-03-26T19:26:50.197Z,29.43
2019-03-26T19:29:58.885Z,23.87
2019-03-26T19:33:07.624Z,28.57
2019-03-26T19:36:16.275Z,153.35
2019-03-26T19:39:25.065Z,64.67
2019-03-26T19:42:33.825Z,119.73
2019-03-26T19:45:42.478Z,57.27
2019-03-26T19:48:51.174Z,240.40
2019-03-26T19:51:59.966Z,64.30
2019-03-26T19:55:09.391Z,128.40
2019-03-26T19:58:18.366Z,79.63
2019-03-26T20:01:26.973Z,75.20
2019-03-26T20:04:35.595Z,78.93
2019-03-26T20:07:44.612Z,90.73
2019-03-26T20:10:53.316Z,76.97
2019-03-26T20:14:01.932Z,71.00
2019-03-26T20:17:10.659Z,57.97
2019-03-26T20:20:20.100Z,56.10
2019-03-26T20:23:28.840Z,52.77
2019-03-26T20:26:37.682Z,28.73
2019-03-26T20:29:47.364Z,39.63
2019-03-26T20:32:56.063Z,28.63
2019-03-26T20:36:04.744Z,38.50
2019-03-26T20:39:13.446Z,35.23
2019-03-26T20:42:22.183Z,36.20
2019-03-26T20:45:30.866Z,25.90
2019-03-26T20:48:39.558Z,23.57
2019-03-26T20:51:48.258Z,24.70
2019-03-26T20:54:56.854Z,28.60
2019-03-26T20:58:05.688Z,25.90
2019-03-26T21:01:14.337Z,22.90
2019-03-26T21:04:23.242Z,26.07
2019-03-26T21:07:31.933Z,36.40
2019-03-26T21:10:41.844Z,38.50
2019-03-26T21:13:51.231Z,56.53
2019-03-26T21:16:59.998Z,45.57
2019-03-26T21:20:10.837Z,39.70
2019-03-26T21:23:19.617Z,40.20
2019-03-26T21:26:28.139Z,25.33
2019-03-26T21:29:36.907Z,43.63
2019-03-26T21:32:45.443Z,32.77
2019-03-26T21:35:54.014Z,36.83
2019-03-26T21:39:02.729Z,36.00
2019-03-26T21:42:13.066Z,33.50
2019-03-26T21:45:28.388Z,33.00
2019-03-26T21:48:36.963Z,39.30
2019-03-26T21:51:45.559Z,31.87
2019-03-26T21:54:55.327Z,31.90
2019-03-26T21:58:04.039Z,34.43
2019-03-26T22:01:14.380Z,32.57
2019-03-26T22:04:22.956Z,27.00
2019-03-26T22:07:31.478Z,32.27
2019-03-26T22:10:40.004Z,32.87
2019-03-26T22:13:48.760Z,48.97
2019-03-26T22:16:57.367Z,35.07
2019-03-26T22:20:06.454Z,35.67
2019-03-26T22:23:15.045Z,42.30
2019-03-26T22:26:23.644Z,38.57
2019-03-26T22:29:32.306Z,38.87
2019-03-26T22:32:41.013Z,43.53
2019-03-26T22:35:49.514Z,34.13
2019-03-26T22:38:57.992Z,41.40
2019-03-26T22:42:06.494Z,38.50
2019-03-26T22:45:15.366Z,37.90
2019-03-26T22:48:23.874Z,44.03
2019-03-26T22:51:32.426Z,37.03
2019-03-26T22:54:42.619Z,40.23
2019-03-26T22:57:51.140Z,46.37
2019-03-26T23:00:59.854Z,54.93
2019-03-26T23:04:10.255Z,43.67
2019-03-26T23:07:19.047Z,51.07
2019-03-26T23:10:27.696Z,43.87
2019-03-26T23:13:36.299Z,38.40
2019-03-26T23:16:44.920Z,38.30
2019-03-26T23:19:53.470Z,45.23
2019-03-26T23:23:02.095Z,45.70
2019-03-26T23:26:10.664Z,21.70
2019-03-26T23:29:19.297Z,27.70
2019-03-26T23:32:27.966Z,25.10
2019-03-26T23:35:36.428Z,27.50
2019-03-26T23:38:44.920Z,29.30
2019-03-26T23:41:53.478Z,27.03
2019-03-26T23:45:02.076Z,30.97
2019-03-26T23:48:12.036Z,21.33
2019-03-26T23:51:20.764Z,18.40
2019-03-26T23:54:29.566Z,15.37
2019-03-26T23:57:38.091Z,15.50
